sensor_id;sensor_type;location;lat;lon;timestamp;pressure;altitude;pressure_sealevel;temperature;humidity
38620;BME280;24376;51.986;4.662;2022-11-20T00:00:53;103813.34;;;-2.07;100.00
38620;BME280;24376;51.986;4.662;2022-11-20T00:03:18;103831.28;;;-2.14;100.00
38620;BME280;24376;51.986;4.662;2022-11-20T00:05:43;103831.22;;;-2.21;100.00
38620;BME280;24376;51.986;4.662;2022-11-20T00:08:08;103843.53;;;-2.19;100.00
38620;BME280;24376;51.986;4.662;2022-11-20T00:10:37;103837.09;;;-2.22;100.00
38620;BME280;24376;51.986;4.662;2022-11-20T00:13:03;103849.75;;;-2.24;100.00
38620;BME280;24376;51.986;4.662;2022-11-20T00:15:28;103874.16;;;-2.20;100.00
38620;BME280;24376;51.986;4.662;2022-11-20T00:17:53;103872.66;;;-2.25;100.00
38620;BME280;24376;51.986;4.662;2022-11-20T00:20:18;103871.91;;;-2.31;100.00
38620;BME280;24376;51.986;4.662;2022-11-20T00:22:43;103869.06;;;-2.40;100.00
38620;BME280;24376;51.986;4.662;2022-11-20T00:25:09;103854.88;;;-2.51;100.00
38620;BME280;24376;51.986;4.662;2022-11-20T00:27:34;103830.44;;;-2.61;100.00
38620;BME280;24376;51.986;4.662;2022-11-20T00:29:59;103852.59;;;-2.62;100.00
38620;BME280;24376;51.986;4.662;2022-11-20T00:32:24;103867.63;;;-2.65;100.00
38620;BME280;24376;51.986;4.662;2022-11-20T00:34:49;103872.56;;;-2.66;100.00
38620;BME280;24376;51.986;4.662;2022-11-20T00:37:15;103898.63;;;-2.56;100.00
38620;BME280;24376;51.986;4.662;2022-11-20T00:39:40;103968.56;;;-2.45;100.00
38620;BME280;24376;51.986;4.662;2022-11-20T00:42:05;104009.28;;;-2.41;100.00
38620;BME280;24376;51.986;4.662;2022-11-20T00:44:30;104034.03;;;-2.41;100.00
38620;BME280;24376;51.986;4.662;2022-11-20T00:46:55;104049.94;;;-2.44;100.00
38620;BME280;24376;51.986;4.662;2022-11-20T00:49:21;104058.31;;;-2.52;100.00
38620;BME280;24376;51.986;4.662;2022-11-20T00:51:46;104074.31;;;-2.47;100.00
38620;BME280;24376;51.986;4.662;2022-11-20T00:54:11;104075.16;;;-2.54;100.00
38620;BME280;24376;51.986;4.662;2022-11-20T00:56:36;104070.16;;;-2.59;100.00
38620;BME280;24376;51.986;4.662;2022-11-20T00:59:02;104072.63;;;-2.66;100.00
38620;BME280;24376;51.986;4.662;2022-11-20T01:01:27;104078.88;;;-2.64;100.00
38620;BME280;24376;51.986;4.662;2022-11-20T01:03:54;104090.38;;;-2.68;100.00
38620;BME280;24376;51.986;4.662;2022-11-20T01:06:24;104089.19;;;-2.77;100.00
38620;BME280;24376;51.986;4.662;2022-11-20T01:08:52;104092.78;;;-2.82;100.00
38620;BME280;24376;51.986;4.662;2022-11-20T01:11:19;104100.41;;;-2.89;100.00
38620;BME280;24376;51.986;4.662;2022-11-20T01:13:46;104109.69;;;-2.90;100.00
38620;BME280;24376;51.986;4.662;2022-11-20T01:16:16;104110.22;;;-2.92;100.00
38620;BME280;24376;51.986;4.662;2022-11-20T01:18:42;104123.78;;;-2.93;100.00
38620;BME280;24376;51.986;4.662;2022-11-20T01:21:08;104143.38;;;-2.94;100.00
38620;BME280;24376;51.986;4.662;2022-11-20T01:23:35;104143.06;;;-3.03;100.00
38620;BME280;24376;51.986;4.662;2022-11-20T01:26:01;104157.03;;;-3.01;100.00
38620;BME280;24376;51.986;4.662;2022-11-20T01:28:26;104168.28;;;-3.06;100.00
38620;BME280;24376;51.986;4.662;2022-11-20T01:30:51;104156.78;;;-3.15;100.00
38620;BME280;24376;51.986;4.662;2022-11-20T01:33:16;104169.41;;;-3.16;100.00
38620;BME280;24376;51.986;4.662;2022-11-20T01:35:42;104181.72;;;-3.14;100.00
38620;BME280;24376;51.986;4.662;2022-11-20T01:38:07;104193.22;;;-3.17;100.00
38620;BME280;24376;51.986;4.662;2022-11-20T01:40:32;104225.72;;;-3.11;100.00
38620;BME280;24376;51.986;4.662;2022-11-20T01:43:30;104248.59;;;-3.12;100.00
38620;BME280;24376;51.986;4.662;2022-11-20T01:48:21;104258.69;;;-3.32;100.00
38620;BME280;24376;51.986;4.662;2022-11-20T01:50:47;104261.53;;;-3.36;100.00
38620;BME280;24376;51.986;4.662;2022-11-20T01:53:13;104270.84;;;-3.37;100.00
38620;BME280;24376;51.986;4.662;2022-11-20T01:55:41;104295.56;;;-3.37;100.00
38620;BME280;24376;51.986;4.662;2022-11-20T01:58:07;104361.44;;;-3.18;100.00
38620;BME280;24376;51.986;4.662;2022-11-20T02:00:33;104379.16;;;-3.19;100.00
38620;BME280;24376;51.986;4.662;2022-11-20T02:02:59;104383.88;;;-3.23;100.00
38620;BME280;24376;51.986;4.662;2022-11-20T02:05:27;104398.41;;;-3.29;100.00
38620;BME280;24376;51.986;4.662;2022-11-20T02:07:53;104399.47;;;-3.39;100.00
38620;BME280;24376;51.986;4.662;2022-11-20T02:10:19;104404.25;;;-3.48;100.00
38620;BME280;24376;51.986;4.662;2022-11-20T02:12:45;104409.47;;;-3.54;100.00
38620;BME280;24376;51.986;4.662;2022-11-20T02:15:29;104456.25;;;-3.55;100.00
38620;BME280;24376;51.986;4.662;2022-11-20T02:17:54;104467.94;;;-3.57;100.00
38620;BME280;24376;51.986;4.662;2022-11-20T02:20:19;104493.75;;;-3.55;100.00
38620;BME280;24376;51.986;4.662;2022-11-20T02:22:49;104535.25;;;-3.58;100.00
38620;BME280;24376;51.986;4.662;2022-11-20T02:25:17;104534.16;;;-3.65;100.00
38620;BME280;24376;51.986;4.662;2022-11-20T02:27:43;104547.47;;;-3.68;100.00
38620;BME280;24376;51.986;4.662;2022-11-20T02:30:08;104556.28;;;-3.66;100.00
38620;BME280;24376;51.986;4.662;2022-11-20T02:32:35;104564.25;;;-3.70;100.00
38620;BME280;24376;51.986;4.662;2022-11-20T02:35:38;104554.00;;;-3.70;100.00
38620;BME280;24376;51.986;4.662;2022-11-20T02:37:59;104570.97;;;-3.65;100.00
38620;BME280;24376;51.986;4.662;2022-11-20T02:40:25;104583.06;;;-3.64;100.00
38620;BME280;24376;51.986;4.662;2022-11-20T02:42:51;104601.91;;;-3.63;100.00
38620;BME280;24376;51.986;4.662;2022-11-20T02:45:16;104597.91;;;-3.61;100.00
38620;BME280;24376;51.986;4.662;2022-11-20T02:47:41;104576.81;;;-3.71;100.00
38620;BME280;24376;51.986;4.662;2022-11-20T02:50:07;104602.44;;;-3.71;100.00
38620;BME280;24376;51.986;4.662;2022-11-20T02:52:32;104616.00;;;-3.78;100.00
38620;BME280;24376;51.986;4.662;2022-11-20T02:54:57;104624.00;;;-3.88;100.00
38620;BME280;24376;51.986;4.662;2022-11-20T02:57:22;104627.06;;;-3.96;100.00
38620;BME280;24376;51.986;4.662;2022-11-20T02:59:47;104639.41;;;-3.93;100.00
38620;BME280;24376;51.986;4.662;2022-11-20T03:02:13;104649.66;;;-3.93;100.00
38620;BME280;24376;51.986;4.662;2022-11-20T03:04:38;104663.59;;;-3.91;100.00
38620;BME280;24376;51.986;4.662;2022-11-20T03:07:03;104668.50;;;-3.93;100.00
38620;BME280;24376;51.986;4.662;2022-11-20T03:09:29;104685.66;;;-3.86;100.00
38620;BME280;24376;51.986;4.662;2022-11-20T03:11:54;104697.50;;;-3.81;100.00
38620;BME280;24376;51.986;4.662;2022-11-20T03:14:19;104714.22;;;-3.78;100.00
38620;BME280;24376;51.986;4.662;2022-11-20T03:16:44;104731.94;;;-3.79;100.00
38620;BME280;24376;51.986;4.662;2022-11-20T03:19:10;104730.84;;;-3.87;100.00
38620;BME280;24376;51.986;4.662;2022-11-20T03:21:35;104728.28;;;-3.87;100.00
38620;BME280;24376;51.986;4.662;2022-11-20T03:24:01;104735.22;;;-3.80;100.00
38620;BME280;24376;51.986;4.662;2022-11-20T03:26:46;104752.88;;;-3.76;100.00
38620;BME280;24376;51.986;4.662;2022-11-20T03:29:11;104770.09;;;-3.75;100.00
38620;BME280;24376;51.986;4.662;2022-11-20T03:31:37;104777.06;;;-3.74;100.00
38620;BME280;24376;51.986;4.662;2022-11-20T03:34:05;104769.63;;;-3.78;100.00
38620;BME280;24376;51.986;4.662;2022-11-20T03:36:30;104758.97;;;-3.81;100.00
38620;BME280;24376;51.986;4.662;2022-11-20T03:38:55;104762.91;;;-3.83;100.00
38620;BME280;24376;51.986;4.662;2022-11-20T03:41:22;104753.66;;;-3.88;100.00
38620;BME280;24376;51.986;4.662;2022-11-20T03:43:48;104755.03;;;-3.90;100.00
38620;BME280;24376;51.986;4.662;2022-11-20T03:46:14;104761.38;;;-3.94;100.00
38620;BME280;24376;51.986;4.662;2022-11-20T03:48:39;104765.09;;;-3.97;100.00
38620;BME280;24376;51.986;4.662;2022-11-20T03:51:08;104755.81;;;-4.03;100.00
38620;BME280;24376;51.986;4.662;2022-11-20T03:53:33;104755.81;;;-4.03;100.00
38620;BME280;24376;51.986;4.662;2022-11-20T03:55:58;104765.63;;;-4.06;100.00
38620;BME280;24376;51.986;4.662;2022-11-20T03:58:23;104765.84;;;-4.10;100.00
38620;BME280;24376;51.986;4.662;2022-11-20T04:00:49;104784.22;;;-4.07;100.00
38620;BME280;24376;51.986;4.662;2022-11-20T04:03:14;104797.25;;;-4.05;100.00
38620;BME280;24376;51.986;4.662;2022-11-20T04:05:39;104808.88;;;-4.07;100.00
38620;BME280;24376;51.986;4.662;2022-11-20T04:08:04;104806.09;;;-4.09;100.00
38620;BME280;24376;51.986;4.662;2022-11-20T04:10:29;104792.88;;;-4.17;100.00
38620;BME280;24376;51.986;4.662;2022-11-20T04:12:55;104807.53;;;-4.11;100.00
38620;BME280;24376;51.986;4.662;2022-11-20T04:15:20;104802.41;;;-4.11;100.00
38620;BME280;24376;51.986;4.662;2022-11-20T04:17:45;104813.28;;;-4.06;100.00
38620;BME280;24376;51.986;4.662;2022-11-20T04:20:10;104813.97;;;-4.02;100.00
38620;BME280;24376;51.986;4.662;2022-11-20T04:22:35;104824.22;;;-4.02;100.00
38620;BME280;24376;51.986;4.662;2022-11-20T04:25:00;104847.25;;;-3.96;100.00
38620;BME280;24376;51.986;4.662;2022-11-20T04:27:26;104863.31;;;-3.97;100.00
38620;BME280;24376;51.986;4.662;2022-11-20T04:29:51;104860.53;;;-3.98;100.00
38620;BME280;24376;51.986;4.662;2022-11-20T04:32:16;104895.88;;;-3.90;100.00
38620;BME280;24376;51.986;4.662;2022-11-20T04:34:41;104896.34;;;-3.93;100.00
38620;BME280;24376;51.986;4.662;2022-11-20T04:37:06;104916.56;;;-3.83;100.00
38620;BME280;24376;51.986;4.662;2022-11-20T04:39:31;104920.53;;;-3.85;100.00
38620;BME280;24376;51.986;4.662;2022-11-20T04:41:57;104921.22;;;-3.81;100.00
38620;BME280;24376;51.986;4.662;2022-11-20T04:44:40;104928.69;;;-3.82;100.00
38620;BME280;24376;51.986;4.662;2022-11-20T04:47:05;104946.59;;;-3.77;100.00
38620;BME280;24376;51.986;4.662;2022-11-20T04:49:31;104967.53;;;-3.73;100.00
38620;BME280;24376;51.986;4.662;2022-11-20T04:51:56;104968.03;;;-3.82;100.00
38620;BME280;24376;51.986;4.662;2022-11-20T04:54:21;104980.34;;;-3.79;100.00
38620;BME280;24376;51.986;4.662;2022-11-20T04:56:47;104994.06;;;-3.73;100.00
38620;BME280;24376;51.986;4.662;2022-11-20T04:59:12;104988.03;;;-3.79;100.00
38620;BME280;24376;51.986;4.662;2022-11-20T05:01:37;104986.63;;;-3.83;100.00
38620;BME280;24376;51.986;4.662;2022-11-20T05:04:03;105009.00;;;-3.82;100.00
38620;BME280;24376;51.986;4.662;2022-11-20T05:06:28;105029.50;;;-3.76;100.00
38620;BME280;24376;51.986;4.662;2022-11-20T05:08:53;105042.50;;;-3.75;100.00
38620;BME280;24376;51.986;4.662;2022-11-20T05:11:19;105031.56;;;-3.79;100.00
38620;BME280;24376;51.986;4.662;2022-11-20T05:13:45;105041.59;;;-3.75;100.00
38620;BME280;24376;51.986;4.662;2022-11-20T05:16:14;105041.81;;;-3.79;100.00
38620;BME280;24376;51.986;4.662;2022-11-20T05:18:39;105037.88;;;-3.88;100.00
38620;BME280;24376;51.986;4.662;2022-11-20T05:21:05;105030.88;;;-3.95;100.00
38620;BME280;24376;51.986;4.662;2022-11-20T05:23:31;105033.44;;;-4.01;100.00
38620;BME280;24376;51.986;4.662;2022-11-20T05:25:56;105017.16;;;-4.07;100.00
38620;BME280;24376;51.986;4.662;2022-11-20T05:28:22;105032.50;;;-4.07;100.00
38620;BME280;24376;51.986;4.662;2022-11-20T05:30:47;105027.38;;;-4.07;100.00
38620;BME280;24376;51.986;4.662;2022-11-20T05:33:12;105036.47;;;-4.09;100.00
38620;BME280;24376;51.986;4.662;2022-11-20T05:35:38;105050.22;;;-4.03;100.00
38620;BME280;24376;51.986;4.662;2022-11-20T05:38:03;105056.03;;;-4.04;100.00
38620;BME280;24376;51.986;4.662;2022-11-20T05:40:28;105042.75;;;-4.07;100.00
38620;BME280;24376;51.986;4.662;2022-11-20T05:42:53;105043.00;;;-4.05;100.00
38620;BME280;24376;51.986;4.662;2022-11-20T05:45:18;105047.19;;;-4.00;100.00
38620;BME280;24376;51.986;4.662;2022-11-20T05:47:43;105046.00;;;-4.02;100.00
38620;BME280;24376;51.986;4.662;2022-11-20T05:50:09;105061.16;;;-3.98;100.00
38620;BME280;24376;51.986;4.662;2022-11-20T05:52:34;105091.19;;;-3.80;100.00
38620;BME280;24376;51.986;4.662;2022-11-20T05:54:59;105114.00;;;-3.70;100.00
38620;BME280;24376;51.986;4.662;2022-11-20T05:57:24;105125.41;;;-3.63;100.00
38620;BME280;24376;51.986;4.662;2022-11-20T05:59:49;105140.53;;;-3.47;100.00
38620;BME280;24376;51.986;4.662;2022-11-20T06:02:14;105161.97;;;-3.41;100.00
38620;BME280;24376;51.986;4.662;2022-11-20T06:04:40;105167.75;;;-3.42;100.00
38620;BME280;24376;51.986;4.662;2022-11-20T06:07:05;105159.63;;;-3.45;100.00
38620;BME280;24376;51.986;4.662;2022-11-20T06:09:31;105141.91;;;-3.50;100.00
38620;BME280;24376;51.986;4.662;2022-11-20T06:11:56;105132.38;;;-3.51;100.00
38620;BME280;24376;51.986;4.662;2022-11-20T06:14:21;105138.44;;;-3.50;100.00
38620;BME280;24376;51.986;4.662;2022-11-20T06:16:46;105129.59;;;-3.52;100.00
38620;BME280;24376;51.986;4.662;2022-11-20T06:19:11;105135.16;;;-3.55;100.00
38620;BME280;24376;51.986;4.662;2022-11-20T06:21:40;105154.28;;;-3.41;100.00
38620;BME280;24376;51.986;4.662;2022-11-20T06:24:05;105156.13;;;-3.40;100.00
38620;BME280;24376;51.986;4.662;2022-11-20T06:26:32;105163.56;;;-3.36;100.00
38620;BME280;24376;51.986;4.662;2022-11-20T06:28:58;105180.34;;;-3.27;100.00
38620;BME280;24376;51.986;4.662;2022-11-20T06:31:23;105173.81;;;-3.25;100.00
38620;BME280;24376;51.986;4.662;2022-11-20T06:33:49;105166.59;;;-3.33;100.00
38620;BME280;24376;51.986;4.662;2022-11-20T06:36:15;105168.47;;;-3.32;100.00
38620;BME280;24376;51.986;4.662;2022-11-20T06:38:41;105170.09;;;-3.27;100.00
38620;BME280;24376;51.986;4.662;2022-11-20T06:41:07;105160.78;;;-3.32;100.00
38620;BME280;24376;51.986;4.662;2022-11-20T06:43:34;105155.66;;;-3.38;100.00
38620;BME280;24376;51.986;4.662;2022-11-20T06:45:59;105180.84;;;-3.30;100.00
38620;BME280;24376;51.986;4.662;2022-11-20T06:48:25;105178.50;;;-3.28;100.00
38620;BME280;24376;51.986;4.662;2022-11-20T06:50:51;105178.00;;;-3.20;100.00
38620;BME280;24376;51.986;4.662;2022-11-20T06:53:16;105197.34;;;-3.11;100.00
38620;BME280;24376;51.986;4.662;2022-11-20T06:55:44;105198.03;;;-3.06;100.00
38620;BME280;24376;51.986;4.662;2022-11-20T06:58:10;105207.59;;;-3.05;100.00
38620;BME280;24376;51.986;4.662;2022-11-20T07:00:36;105221.56;;;-2.92;100.00
38620;BME280;24376;51.986;4.662;2022-11-20T07:03:04;105215.25;;;-2.88;100.00
38620;BME280;24376;51.986;4.662;2022-11-20T07:05:29;105220.38;;;-2.77;100.00
38620;BME280;24376;51.986;4.662;2022-11-20T07:07:57;105243.44;;;-2.66;100.00
38620;BME280;24376;51.986;4.662;2022-11-20T07:10:23;105241.78;;;-2.60;100.00
38620;BME280;24376;51.986;4.662;2022-11-20T07:12:49;105235.47;;;-2.62;100.00
38620;BME280;24376;51.986;4.662;2022-11-20T07:15:14;105246.41;;;-2.52;100.00
38620;BME280;24376;51.986;4.662;2022-11-20T07:17:39;105252.44;;;-2.46;100.00
38620;BME280;24376;51.986;4.662;2022-11-20T07:20:06;105270.59;;;-2.33;100.00
38620;BME280;24376;51.986;4.662;2022-11-20T07:22:32;105274.56;;;-2.29;100.00
38620;BME280;24376;51.986;4.662;2022-11-20T07:24:57;105285.03;;;-2.22;100.00
38620;BME280;24376;51.986;4.662;2022-11-20T07:27:22;105303.44;;;-2.08;100.00
38620;BME280;24376;51.986;4.662;2022-11-20T07:29:47;105316.69;;;-1.99;100.00
38620;BME280;24376;51.986;4.662;2022-11-20T07:32:12;105320.41;;;-1.92;100.00
38620;BME280;24376;51.986;4.662;2022-11-20T07:34:37;105322.94;;;-1.86;100.00
38620;BME280;24376;51.986;4.662;2022-11-20T07:37:03;105302.84;;;-1.83;100.00
38620;BME280;24376;51.986;4.662;2022-11-20T07:39:28;105289.09;;;-1.83;100.00
38620;BME280;24376;51.986;4.662;2022-11-20T07:42:13;105276.19;;;-1.78;100.00
38620;BME280;24376;51.986;4.662;2022-11-20T07:44:38;105272.00;;;-1.77;100.00
38620;BME280;24376;51.986;4.662;2022-11-20T07:47:04;105264.28;;;-1.77;100.00
38620;BME280;24376;51.986;4.662;2022-11-20T07:49:29;105252.31;;;-1.71;100.00
38620;BME280;24376;51.986;4.662;2022-11-20T07:51:54;105244.84;;;-1.70;100.00
38620;BME280;24376;51.986;4.662;2022-11-20T07:54:20;105245.97;;;-1.62;100.00
38620;BME280;24376;51.986;4.662;2022-11-20T07:56:45;105229.13;;;-1.60;100.00
38620;BME280;24376;51.986;4.662;2022-11-20T07:59:11;105214.13;;;-1.57;100.00
38620;BME280;24376;51.986;4.662;2022-11-20T08:01:36;105203.13;;;-1.50;100.00
38620;BME280;24376;51.986;4.662;2022-11-20T08:04:02;105208.69;;;-1.47;100.00
38620;BME280;24376;51.986;4.662;2022-11-20T08:06:28;105210.25;;;-1.37;100.00
38620;BME280;24376;51.986;4.662;2022-11-20T08:08:53;105194.56;;;-1.32;100.00
38620;BME280;24376;51.986;4.662;2022-11-20T08:11:18;105204.03;;;-1.20;100.00
38620;BME280;24376;51.986;4.662;2022-11-20T08:14:02;105195.59;;;-1.19;100.00
38620;BME280;24376;51.986;4.662;2022-11-20T08:16:45;105182.41;;;-1.10;100.00
38620;BME280;24376;51.986;4.662;2022-11-20T08:19:12;105165.47;;;-1.02;100.00
38620;BME280;24376;51.986;4.662;2022-11-20T08:21:37;105139.75;;;-1.02;100.00
38620;BME280;24376;51.986;4.662;2022-11-20T08:24:02;105120.97;;;-0.95;100.00
38620;BME280;24376;51.986;4.662;2022-11-20T08:26:27;105105.72;;;-0.94;100.00
38620;BME280;24376;51.986;4.662;2022-11-20T08:28:53;105100.97;;;-0.85;100.00
38620;BME280;24376;51.986;4.662;2022-11-20T08:31:19;105112.31;;;-0.77;100.00
38620;BME280;24376;51.986;4.662;2022-11-20T08:33:44;105096.72;;;-0.66;100.00
38620;BME280;24376;51.986;4.662;2022-11-20T08:36:10;105084.00;;;-0.59;100.00
38620;BME280;24376;51.986;4.662;2022-11-20T08:38:35;105057.41;;;-0.65;100.00
38620;BME280;24376;51.986;4.662;2022-11-20T08:41:01;105040.09;;;-0.66;100.00
38620;BME280;24376;51.986;4.662;2022-11-20T08:43:45;105022.09;;;-0.66;100.00
38620;BME280;24376;51.986;4.662;2022-11-20T08:46:10;105013.47;;;-0.54;100.00
38620;BME280;24376;51.986;4.662;2022-11-20T08:48:36;104994.44;;;-0.49;100.00
38620;BME280;24376;51.986;4.662;2022-11-20T08:51:01;104978.91;;;-0.43;100.00
38620;BME280;24376;51.986;4.662;2022-11-20T08:53:26;104979.44;;;-0.33;100.00
38620;BME280;24376;51.986;4.662;2022-11-20T08:55:52;104967.88;;;-0.30;100.00
38620;BME280;24376;51.986;4.662;2022-11-20T08:58:17;104944.41;;;-0.25;100.00
38620;BME280;24376;51.986;4.662;2022-11-20T09:00:42;104941.44;;;-0.16;100.00
38620;BME280;24376;51.986;4.662;2022-11-20T09:03:07;104923.50;;;-0.09;100.00
38620;BME280;24376;51.986;4.662;2022-11-20T09:05:32;104909.06;;;-0.01;100.00
38620;BME280;24376;51.986;4.662;2022-11-20T09:07:58;104893.84;;;0.01;100.00
38620;BME280;24376;51.986;4.662;2022-11-20T09:10:23;104879.38;;;0.08;100.00
38620;BME280;24376;51.986;4.662;2022-11-20T09:12:48;104865.44;;;0.13;100.00
38620;BME280;24376;51.986;4.662;2022-11-20T09:15:14;104844.19;;;0.21;100.00
38620;BME280;24376;51.986;4.662;2022-11-20T09:17:39;104818.59;;;0.23;100.00
38620;BME280;24376;51.986;4.662;2022-11-20T09:20:04;104808.41;;;0.30;100.00
38620;BME280;24376;51.986;4.662;2022-11-20T09:22:29;104771.38;;;0.30;100.00
38620;BME280;24376;51.986;4.662;2022-11-20T09:24:55;104767.28;;;0.44;100.00
38620;BME280;24376;51.986;4.662;2022-11-20T09:27:20;104737.53;;;0.53;100.00
38620;BME280;24376;51.986;4.662;2022-11-20T09:29:48;104724.53;;;0.66;100.00
38620;BME280;24376;51.986;4.662;2022-11-20T09:32:13;104712.47;;;0.79;100.00
38620;BME280;24376;51.986;4.662;2022-11-20T09:34:38;104681.00;;;0.82;100.00
38620;BME280;24376;51.986;4.662;2022-11-20T09:37:03;104677.38;;;0.94;100.00
38620;BME280;24376;51.986;4.662;2022-11-20T09:39:28;104654.03;;;1.07;100.00
38620;BME280;24376;51.986;4.662;2022-11-20T09:42:13;104634.50;;;1.09;100.00
38620;BME280;24376;51.986;4.662;2022-11-20T09:47:18;104565.94;;;1.18;100.00
38620;BME280;24376;51.986;4.662;2022-11-20T09:54:49;104491.13;;;1.40;100.00
38620;BME280;24376;51.986;4.662;2022-11-20T09:57:17;104447.22;;;1.40;100.00
38620;BME280;24376;51.986;4.662;2022-11-20T09:59:46;104426.91;;;1.50;100.00
38620;BME280;24376;51.986;4.662;2022-11-20T10:04:41;104383.38;;;1.60;100.00
38620;BME280;24376;51.986;4.662;2022-11-20T10:07:12;104348.50;;;1.64;100.00
38620;BME280;24376;51.986;4.662;2022-11-20T10:09:39;104284.69;;;1.48;100.00
38620;BME280;24376;51.986;4.662;2022-11-20T10:12:17;104248.22;;;1.45;100.00
38620;BME280;24376;51.986;4.662;2022-11-20T10:14:56;104236.19;;;1.53;100.00
38620;BME280;24376;51.986;4.662;2022-11-20T10:25:34;104148.91;;;1.50;100.00
38620;BME280;24376;51.986;4.662;2022-11-20T10:30:46;104130.25;;;1.60;100.00
38620;BME280;24376;51.986;4.662;2022-11-20T10:33:17;104109.19;;;1.64;100.00
38620;BME280;24376;51.986;4.662;2022-11-20T10:38:25;104098.59;;;1.77;100.00
38620;BME280;24376;51.986;4.662;2022-11-20T10:40:56;104076.63;;;1.73;100.00
38620;BME280;24376;51.986;4.662;2022-11-20T10:43:42;104068.97;;;1.89;100.00
38620;BME280;24376;51.986;4.662;2022-11-20T10:46:10;104066.75;;;1.92;100.00
38620;BME280;24376;51.986;4.662;2022-11-20T10:48:39;104059.69;;;1.91;100.00
38620;BME280;24376;51.986;4.662;2022-11-20T10:56:20;104044.78;;;2.11;100.00
38620;BME280;24376;51.986;4.662;2022-11-20T10:58:52;104039.69;;;2.20;100.00
38620;BME280;24376;51.986;4.662;2022-11-20T11:01:20;104043.16;;;2.28;100.00
38620;BME280;24376;51.986;4.662;2022-11-20T11:03:48;104045.81;;;2.36;100.00
38620;BME280;24376;51.986;4.662;2022-11-20T11:08:42;104003.53;;;2.52;100.00
38620;BME280;24376;51.986;4.662;2022-11-20T11:13:33;103964.50;;;2.57;100.00
38620;BME280;24376;51.986;4.662;2022-11-20T11:15:58;103948.72;;;2.63;100.00
38620;BME280;24376;51.986;4.662;2022-11-20T11:20:51;103932.22;;;2.78;100.00
38620;BME280;24376;51.986;4.662;2022-11-20T11:25:56;103845.00;;;2.77;100.00
38620;BME280;24376;51.986;4.662;2022-11-20T11:28:22;103824.94;;;2.83;100.00
38620;BME280;24376;51.986;4.662;2022-11-20T11:30:51;103808.69;;;2.84;100.00
38620;BME280;24376;51.986;4.662;2022-11-20T11:35:45;103770.16;;;2.79;100.00
38620;BME280;24376;51.986;4.662;2022-11-20T11:38:12;103766.34;;;2.84;100.00
38620;BME280;24376;51.986;4.662;2022-11-20T11:40:39;103736.31;;;2.77;100.00
38620;BME280;24376;51.986;4.662;2022-11-20T11:43:06;103729.31;;;2.76;100.00
38620;BME280;24376;51.986;4.662;2022-11-20T11:45:55;103706.19;;;2.78;100.00
38620;BME280;24376;51.986;4.662;2022-11-20T11:48:20;103719.94;;;2.85;100.00
38620;BME280;24376;51.986;4.662;2022-11-20T11:50:49;103681.22;;;2.78;100.00
38620;BME280;24376;51.986;4.662;2022-11-20T11:53:18;103672.41;;;2.76;100.00
38620;BME280;24376;51.986;4.662;2022-11-20T11:55:45;103683.09;;;2.88;100.00
38620;BME280;24376;51.986;4.662;2022-11-20T12:00:38;103711.13;;;3.01;100.00
38620;BME280;24376;51.986;4.662;2022-11-20T12:03:13;103723.22;;;3.09;100.00
38620;BME280;24376;51.986;4.662;2022-11-20T12:05:42;103719.41;;;3.14;100.00
38620;BME280;24376;51.986;4.662;2022-11-20T12:08:51;103703.69;;;3.12;100.00
38620;BME280;24376;51.986;4.662;2022-11-20T12:15:59;103723.25;;;3.26;100.00
38620;BME280;24376;51.986;4.662;2022-11-20T12:18:24;103719.28;;;3.30;100.00
38620;BME280;24376;51.986;4.662;2022-11-20T12:21:00;103719.47;;;3.31;100.00
38620;BME280;24376;51.986;4.662;2022-11-20T12:23:41;103739.88;;;3.45;100.00
38620;BME280;24376;51.986;4.662;2022-11-20T12:26:13;103747.81;;;3.47;100.00
38620;BME280;24376;51.986;4.662;2022-11-20T12:34:02;103811.50;;;3.36;100.00
38620;BME280;24376;51.986;4.662;2022-11-20T12:36:45;103847.28;;;3.40;100.00
38620;BME280;24376;51.986;4.662;2022-11-20T12:41:47;103872.25;;;3.31;100.00
38620;BME280;24376;51.986;4.662;2022-11-20T12:50:13;103954.31;;;3.24;100.00
38620;BME280;24376;51.986;4.662;2022-11-20T12:52:47;103997.31;;;3.30;100.00
38620;BME280;24376;51.986;4.662;2022-11-20T12:57:43;104045.03;;;3.32;100.00
38620;BME280;24376;51.986;4.662;2022-11-20T13:00:22;104103.09;;;3.34;100.00
38620;BME280;24376;51.986;4.662;2022-11-20T13:08:33;104197.91;;;3.41;100.00
38620;BME280;24376;51.986;4.662;2022-11-20T13:11:19;104238.44;;;3.40;100.00
38620;BME280;24376;51.986;4.662;2022-11-20T13:13:52;104276.91;;;3.44;100.00
38620;BME280;24376;51.986;4.662;2022-11-20T13:19:00;104307.59;;;3.49;100.00
38620;BME280;24376;51.986;4.662;2022-11-20T13:24:03;104381.22;;;3.51;100.00
38620;BME280;24376;51.986;4.662;2022-11-20T13:26:29;104415.72;;;3.58;100.00
38620;BME280;24376;51.986;4.662;2022-11-20T13:29:07;104413.38;;;3.53;100.00
38620;BME280;24376;51.986;4.662;2022-11-20T13:31:34;104437.06;;;3.56;100.00
38620;BME280;24376;51.986;4.662;2022-11-20T13:34:01;104464.81;;;3.57;100.00
38620;BME280;24376;51.986;4.662;2022-11-20T13:36:28;104478.53;;;3.56;100.00
38620;BME280;24376;51.986;4.662;2022-11-20T13:38:54;104523.31;;;3.55;100.00
38620;BME280;24376;51.986;4.662;2022-11-20T13:41:26;104549.34;;;3.63;100.00
38620;BME280;24376;51.986;4.662;2022-11-20T13:43:52;104551.38;;;3.66;100.00
38620;BME280;24376;51.986;4.662;2022-11-20T13:46:18;104550.69;;;3.60;100.00
38620;BME280;24376;51.986;4.662;2022-11-20T13:48:49;104575.47;;;3.58;100.00
38620;BME280;24376;51.986;4.662;2022-11-20T13:51:16;104612.47;;;3.64;100.00
38620;BME280;24376;51.986;4.662;2022-11-20T14:01:20;104645.13;;;3.47;100.00
38620;BME280;24376;51.986;4.662;2022-11-20T14:03:46;104679.34;;;3.52;100.00
38620;BME280;24376;51.986;4.662;2022-11-20T14:06:13;104689.94;;;3.46;100.00
38620;BME280;24376;51.986;4.662;2022-11-20T14:08:45;104720.47;;;3.49;100.00